createdAt,value
2022-08-27T00:00:44.709Z,60.10
2022-08-27T00:03:12.193Z,61.72
2022-08-27T00:05:39.924Z,61.47
2022-08-27T00:08:08.160Z,61.54
2022-08-27T00:10:35.415Z,60.50
2022-08-27T00:13:02.639Z,59.88
2022-08-27T00:15:29.994Z,58.91
2022-08-27T00:17:57.220Z,59.19
2022-08-27T00:20:26.025Z,59.22
2022-08-27T00:22:53.694Z,60.26
2022-08-27T00:25:21.002Z,59.62
2022-08-27T00:27:48.232Z,59.70
2022-08-27T00:30:16.404Z,59.59
2022-08-27T00:32:49.346Z,58.79
2022-08-27T00:35:17.039Z,57.88
2022-08-27T00:37:46.657Z,57.42
2022-08-27T00:40:15.987Z,57.85
2022-08-27T00:42:45.891Z,58.33
2022-08-27T00:45:14.211Z,58.28
2022-08-27T00:47:43.493Z,57.90
2022-08-27T00:50:16.085Z,59.46
2022-08-27T00:52:54.590Z,61.25
2022-08-27T00:55:23.201Z,60.13
2022-08-27T00:57:53.126Z,60.12
2022-08-27T01:00:20.523Z,59.36
2022-08-27T01:02:48.491Z,59.22
2022-08-27T01:05:20.553Z,59.11
2022-08-27T01:07:48.674Z,59.52
2022-08-27T01:10:19.113Z,58.72
2022-08-27T01:12:53.512Z,56.50
2022-08-27T01:15:21.822Z,57.45
2022-08-27T01:17:49.175Z,59.20
2022-08-27T01:20:25.130Z,58.84
2022-08-27T01:22:56.073Z,57.62
2022-08-27T01:25:23.691Z,56.22
2022-08-27T01:27:50.936Z,57.71
2022-08-27T01:30:19.145Z,56.93
2022-08-27T01:32:48.882Z,58.96
2022-08-27T01:35:16.990Z,59.49
2022-08-27T01:37:44.643Z,58.06
2022-08-27T01:40:13.688Z,59.18
2022-08-27T01:42:45.643Z,58.37
2022-08-27T01:45:18.120Z,58.49
2022-08-27T01:47:45.444Z,60.97
2022-08-27T01:50:14.508Z,60.06
2022-08-27T01:55:48.403Z,59.71
2022-08-27T01:58:17.052Z,59.25
2022-08-27T02:00:45.876Z,58.87
2022-08-27T02:03:13.135Z,60.70
2022-08-27T02:05:44.842Z,61.59
2022-08-27T02:08:13.400Z,61.48
2022-08-27T02:10:40.763Z,59.84
2022-08-27T02:13:08.267Z,58.93
2022-08-27T02:15:36.957Z,59.02
2022-08-27T02:18:41.658Z,59.12
2022-08-27T02:21:09.437Z,59.28
2022-08-27T02:23:36.692Z,59.08
2022-08-27T02:26:04.227Z,58.88
2022-08-27T02:28:31.425Z,58.14
2022-08-27T02:30:58.750Z,59.07
2022-08-27T02:33:26.639Z,59.86
2022-08-27T02:35:54.018Z,59.63
2022-08-27T02:38:21.240Z,59.22
2022-08-27T02:40:48.497Z,59.20
2022-08-27T02:43:16.169Z,59.41
2022-08-27T02:45:52.854Z,59.88
2022-08-27T02:48:20.310Z,60.68
2022-08-27T02:50:47.544Z,60.99
2022-08-27T02:53:18.683Z,62.41
2022-08-27T02:55:46.045Z,62.56
2022-08-27T02:58:16.759Z,63.28
2022-08-27T03:00:44.576Z,62.62
2022-08-27T03:03:11.808Z,61.96
2022-08-27T03:05:39.476Z,61.77
2022-08-27T03:08:06.978Z,62.15
2022-08-27T03:10:34.681Z,61.77
2022-08-27T03:13:01.962Z,61.26
2022-08-27T03:15:29.177Z,61.87
2022-08-27T03:18:14.798Z,61.63
2022-08-27T03:20:42.751Z,60.93
2022-08-27T03:23:10.249Z,60.63
2022-08-27T03:25:38.174Z,60.92
2022-08-27T03:28:09.563Z,60.97
2022-08-27T03:31:01.220Z,60.56
2022-08-27T03:33:29.056Z,61.24
2022-08-27T03:35:56.282Z,61.98
2022-08-27T03:38:23.581Z,62.45
2022-08-27T03:40:50.819Z,62.40
2022-08-27T03:43:18.614Z,63.16
2022-08-27T03:45:50.373Z,64.49
2022-08-27T03:48:32.376Z,64.50
2022-08-27T03:50:59.938Z,64.42
2022-08-27T03:53:52.280Z,64.95
2022-08-27T03:56:19.548Z,64.21
2022-08-27T03:58:46.977Z,63.72
2022-08-27T04:01:14.262Z,63.28
2022-08-27T04:03:41.514Z,63.01
2022-08-27T04:06:08.777Z,62.84
2022-08-27T04:08:36.174Z,62.66
2022-08-27T04:11:07.668Z,62.57
2022-08-27T04:13:36.635Z,63.34
2022-08-27T04:16:05.280Z,64.19
2022-08-27T04:18:32.681Z,64.01
2022-08-27T04:21:07.009Z,63.65
2022-08-27T04:23:34.510Z,63.42
2022-08-27T04:26:05.297Z,62.85
2022-08-27T04:28:36.491Z,62.57
2022-08-27T04:31:06.378Z,62.64
2022-08-27T04:33:40.586Z,61.98
2022-08-27T04:36:08.582Z,61.45
2022-08-27T04:38:38.133Z,63.23
2022-08-27T04:41:26.422Z,63.47
2022-08-27T04:43:56.494Z,62.28
2022-08-27T04:46:24.727Z,61.45
2022-08-27T04:48:52.601Z,62.45
2022-08-27T04:51:23.983Z,61.98
2022-08-27T04:56:56.269Z,63.33
2022-08-27T04:59:23.474Z,63.08
2022-08-27T05:01:50.796Z,62.23
2022-08-27T05:04:19.068Z,62.29
2022-08-27T05:06:46.429Z,62.80
2022-08-27T05:09:14.349Z,62.11
2022-08-27T05:11:43.491Z,61.98
2022-08-27T05:14:13.757Z,61.27
2022-08-27T05:16:41.000Z,61.74
2022-08-27T05:19:14.590Z,60.85
2022-08-27T05:21:49.352Z,61.03
2022-08-27T05:24:17.466Z,60.85
2022-08-27T05:26:45.213Z,59.91
2022-08-27T05:29:12.528Z,59.25
2022-08-27T05:31:39.936Z,59.00
2022-08-27T05:34:10.605Z,58.26
2022-08-27T05:36:48.615Z,58.76
2022-08-27T05:39:16.656Z,59.02
2022-08-27T05:41:44.037Z,57.98
2022-08-27T05:44:44.752Z,58.78
2022-08-27T05:47:11.999Z,58.02
2022-08-27T05:49:39.250Z,58.04
2022-08-27T05:52:10.644Z,58.49
2022-08-27T06:01:04.187Z,60.15
2022-08-27T06:03:33.992Z,60.04
2022-08-27T06:06:05.542Z,60.56
2022-08-27T06:08:36.219Z,60.49
2022-08-27T06:11:05.098Z,59.87
2022-08-27T06:13:32.948Z,59.20
2022-08-27T06:16:03.415Z,60.27
2022-08-27T06:18:34.547Z,60.56
2022-08-27T06:21:02.914Z,61.33
2022-08-27T06:23:30.599Z,61.38
2022-08-27T06:25:57.988Z,62.47
2022-08-27T06:28:25.623Z,64.15
2022-08-27T06:30:53.101Z,64.26
2022-08-27T06:33:21.239Z,62.87
2022-08-27T06:35:48.411Z,63.64
2022-08-27T06:38:15.666Z,64.47
2022-08-27T06:40:42.943Z,63.57
2022-08-27T06:43:10.244Z,63.69
2022-08-27T06:46:12.956Z,64.61
2022-08-27T06:48:41.137Z,64.85
2022-08-27T06:51:09.743Z,67.09
2022-08-27T06:56:31.815Z,69.82
2022-08-27T06:59:01.398Z,68.93
2022-08-27T07:01:31.390Z,74.05
2022-08-27T07:03:59.994Z,74.83
2022-08-27T07:06:29.117Z,76.66
2022-08-27T07:08:59.986Z,77.72
2022-08-27T07:11:28.626Z,76.98
2022-08-27T07:13:56.429Z,77.00
2022-08-27T07:16:24.577Z,75.97
2022-08-27T07:18:52.921Z,77.04
2022-08-27T07:21:20.443Z,76.25
2022-08-27T07:23:48.649Z,74.72
2022-08-27T07:26:18.089Z,75.87
2022-08-27T07:28:46.625Z,73.86
2022-08-27T07:31:17.127Z,72.47
2022-08-27T07:33:46.079Z,74.30
2022-08-27T07:36:19.695Z,72.57
2022-08-27T07:38:52.751Z,72.96
2022-08-27T07:41:31.336Z,70.65
2022-08-27T07:44:20.187Z,69.03
2022-08-27T07:46:49.329Z,70.42
2022-08-27T07:49:19.180Z,69.16
2022-08-27T07:51:46.665Z,71.85
2022-08-27T07:54:38.805Z,71.30
2022-08-27T07:57:06.013Z,70.08
2022-08-27T07:59:33.273Z,69.54
2022-08-27T08:02:00.929Z,68.50
2022-08-27T08:04:28.990Z,68.96
2022-08-27T08:06:56.288Z,70.16
2022-08-27T08:09:26.640Z,69.31
2022-08-27T08:11:57.186Z,67.82
2022-08-27T08:14:33.001Z,69.91
2022-08-27T08:17:05.654Z,69.09
2022-08-27T08:19:40.557Z,71.64
2022-08-27T08:22:10.538Z,70.33
2022-08-27T08:24:40.518Z,69.77
2022-08-27T08:27:11.451Z,69.39
2022-08-27T08:29:38.926Z,69.40
2022-08-27T08:32:06.760Z,68.72
2022-08-27T08:35:09.969Z,70.65
2022-08-27T08:37:38.088Z,71.50
2022-08-27T08:40:11.468Z,72.06
2022-08-27T08:42:50.582Z,73.13
2022-08-27T08:45:23.254Z,73.11
2022-08-27T08:47:57.460Z,72.80
2022-08-27T08:50:45.062Z,71.83
2022-08-27T08:53:23.218Z,71.81
2022-08-27T08:56:11.646Z,71.50
2022-08-27T08:58:42.239Z,69.18
2022-08-27T09:01:12.449Z,70.46
2022-08-27T09:03:42.077Z,72.67
2022-08-27T09:06:18.754Z,72.91
2022-08-27T09:08:46.454Z,73.89
2022-08-27T09:11:20.237Z,73.84
2022-08-27T09:13:58.462Z,76.36
2022-08-27T09:16:26.309Z,77.53
2022-08-27T09:18:58.942Z,76.64
2022-08-27T09:21:32.486Z,74.89
2022-08-27T09:24:26.344Z,80.45
2022-08-27T09:26:56.117Z,81.70
2022-08-27T09:29:28.845Z,80.31
2022-08-27T09:31:59.522Z,83.45
2022-08-27T09:34:28.410Z,84.42
2022-08-27T09:37:00.230Z,83.84
2022-08-27T09:39:46.433Z,85.38
2022-08-27T09:42:30.910Z,82.62
2022-08-27T09:44:58.620Z,83.64
2022-08-27T09:47:26.594Z,83.50
2022-08-27T09:50:21.069Z,83.55
2022-08-27T09:52:55.033Z,82.86
2022-08-27T09:55:27.014Z,82.36
2022-08-27T09:57:56.887Z,82.13
2022-08-27T10:00:29.553Z,82.77
2022-08-27T10:03:00.130Z,82.69
2022-08-27T10:05:32.353Z,82.46
2022-08-27T10:08:01.294Z,85.00
2022-08-27T10:10:49.673Z,88.46
2022-08-27T10:13:24.101Z,94.73
2022-08-27T10:16:02.448Z,92.42
2022-08-27T10:18:42.464Z,92.08
2022-08-27T10:21:17.179Z,88.23
2022-08-27T10:23:49.216Z,89.34
2022-08-27T10:26:40.919Z,89.80
2022-08-27T10:29:32.870Z,88.10
2022-08-27T10:32:07.031Z,87.03
2022-08-27T10:34:37.458Z,85.65
2022-08-27T10:37:23.530Z,84.82
2022-08-27T10:40:08.907Z,85.85
2022-08-27T10:42:48.737Z,84.19
2022-08-27T10:45:36.173Z,84.71
2022-08-27T10:48:10.415Z,84.88
2022-08-27T10:50:55.638Z,86.19
2022-08-27T10:53:30.214Z,87.77
2022-08-27T10:56:01.496Z,86.76
2022-08-27T10:58:37.860Z,86.96
2022-08-27T11:01:37.517Z,84.87
2022-08-27T11:04:14.177Z,82.56
2022-08-27T11:06:43.418Z,83.36
2022-08-27T11:09:15.063Z,82.53
2022-08-27T11:12:16.590Z,83.96
2022-08-27T11:14:50.912Z,86.02
2022-08-27T11:17:32.756Z,85.67
2022-08-27T11:20:09.155Z,83.62
2022-08-27T11:22:49.222Z,84.60
2022-08-27T11:25:40.123Z,84.11
2022-08-27T11:28:07.672Z,83.98
2022-08-27T11:30:34.860Z,85.15
2022-08-27T11:33:02.074Z,84.65
2022-08-27T11:35:40.412Z,85.52
2022-08-27T11:38:08.448Z,84.03
2022-08-27T11:40:35.913Z,84.94
2022-08-27T11:43:04.858Z,83.17
2022-08-27T11:45:38.698Z,78.77
2022-08-27T11:48:15.304Z,80.24
2022-08-27T11:50:42.576Z,82.16
2022-08-27T11:53:09.946Z,82.00
2022-08-27T11:55:38.173Z,82.57
2022-08-27T11:58:05.414Z,82.96
2022-08-27T12:00:34.375Z,83.15
2022-08-27T12:03:02.798Z,82.92
2022-08-27T12:05:36.211Z,82.84
2022-08-27T12:08:33.056Z,78.88
2022-08-27T12:11:00.402Z,80.13
2022-08-27T12:13:36.085Z,79.32
2022-08-27T12:16:06.386Z,79.65
2022-08-27T12:18:49.631Z,78.17
2022-08-27T12:21:23.887Z,78.24
2022-08-27T12:24:03.369Z,80.04
2022-08-27T12:26:38.066Z,81.06
2022-08-27T12:29:20.547Z,80.50
2022-08-27T12:31:54.262Z,79.31
2022-08-27T12:34:24.330Z,80.63
2022-08-27T12:36:53.363Z,80.05
2022-08-27T12:39:23.426Z,79.63
2022-08-27T12:41:51.083Z,77.84
2022-08-27T12:44:28.668Z,77.45
2022-08-27T12:46:59.744Z,76.77
2022-08-27T12:49:38.825Z,79.84
2022-08-27T12:52:26.156Z,79.28
2022-08-27T12:55:12.592Z,78.17
2022-08-27T12:57:46.446Z,77.76
2022-08-27T13:00:15.968Z,76.30
2022-08-27T13:03:18.949Z,74.68
2022-08-27T13:05:47.052Z,75.14
2022-08-27T13:08:33.724Z,75.84
2022-08-27T13:11:21.889Z,76.41
2022-08-27T13:13:49.710Z,79.94
2022-08-27T13:16:21.887Z,79.16
2022-08-27T13:18:49.940Z,77.59
2022-08-27T13:21:28.184Z,76.61
2022-08-27T13:24:02.820Z,76.64
2022-08-27T13:26:34.493Z,76.92
2022-08-27T13:29:03.761Z,76.20
2022-08-27T13:31:31.458Z,76.39
2022-08-27T13:33:58.838Z,77.36
2022-08-27T13:36:26.954Z,77.39
2022-08-27T13:38:57.035Z,77.98
2022-08-27T13:41:28.196Z,77.43
2022-08-27T13:43:59.155Z,77.61
2022-08-27T13:46:30.201Z,77.19
2022-08-27T13:48:57.890Z,78.13
2022-08-27T13:51:45.494Z,77.52
2022-08-27T13:54:18.751Z,76.01
2022-08-27T13:56:55.158Z,76.27
2022-08-27T13:59:24.191Z,76.01
2022-08-27T14:02:00.063Z,77.22
2022-08-27T14:04:34.336Z,76.92
2022-08-27T14:07:06.764Z,77.17
2022-08-27T14:09:34.078Z,76.97
2022-08-27T14:12:02.583Z,75.50
2022-08-27T14:14:30.637Z,76.26
2022-08-27T14:16:58.975Z,78.46
2022-08-27T14:19:36.509Z,77.08
2022-08-27T14:22:04.460Z,77.21
2022-08-27T14:24:31.670Z,77.00
2022-08-27T14:27:08.078Z,76.50
2022-08-27T14:29:36.054Z,76.04
2022-08-27T14:32:07.635Z,78.77
2022-08-27T14:34:35.113Z,80.03
2022-08-27T14:37:02.372Z,79.99
2022-08-27T14:39:29.641Z,78.93
2022-08-27T14:41:57.036Z,77.88
2022-08-27T14:44:24.674Z,79.37
2022-08-27T14:46:53.132Z,77.23
2022-08-27T14:49:47.699Z,76.00
2022-08-27T14:52:15.061Z,74.95
2022-08-27T14:54:42.496Z,75.51
2022-08-27T14:57:10.075Z,75.01
2022-08-27T14:59:38.072Z,74.73
2022-08-27T15:02:07.063Z,74.41
2022-08-27T15:04:34.641Z,74.04
2022-08-27T15:07:02.117Z,74.13
2022-08-27T15:09:29.386Z,75.09
2022-08-27T15:11:57.338Z,72.56
2022-08-27T15:14:29.232Z,71.06
2022-08-27T15:16:56.494Z,73.98
2022-08-27T15:19:24.399Z,73.75
2022-08-27T15:21:51.952Z,73.23
2022-08-27T15:24:20.721Z,72.92
2022-08-27T15:26:48.260Z,73.29
2022-08-27T15:29:15.605Z,72.58
2022-08-27T15:31:43.015Z,72.70
2022-08-27T15:34:10.894Z,73.14
2022-08-27T15:36:38.260Z,72.40
2022-08-27T15:39:05.596Z,72.39
2022-08-27T15:41:34.265Z,71.31
2022-08-27T15:44:06.290Z,73.37
2022-08-27T15:46:33.972Z,73.09
2022-08-27T15:49:01.306Z,73.68
2022-08-27T15:51:29.566Z,75.42
2022-08-27T15:53:58.355Z,76.53
2022-08-27T15:56:26.008Z,75.02
2022-08-27T15:58:53.714Z,74.49
2022-08-27T16:01:30.844Z,74.30
2022-08-27T16:04:01.165Z,73.26
2022-08-27T16:06:29.026Z,72.73
2022-08-27T16:08:56.489Z,72.32
2022-08-27T16:11:23.901Z,74.71
2022-08-27T16:13:51.134Z,74.55
2022-08-27T16:16:19.459Z,74.63
2022-08-27T16:18:47.033Z,72.02
2022-08-27T16:21:14.358Z,74.25
2022-08-27T16:23:42.199Z,72.14
2022-08-27T16:26:09.567Z,73.29
2022-08-27T16:28:36.833Z,68.44
2022-08-27T16:31:04.413Z,72.83
2022-08-27T16:33:31.679Z,73.05
2022-08-27T16:35:59.057Z,72.63
2022-08-27T16:38:26.348Z,72.57
2022-08-27T16:41:04.073Z,74.35
2022-08-27T16:43:31.379Z,74.13
2022-08-27T16:46:01.272Z,72.22
2022-08-27T16:48:49.313Z,73.90
2022-08-27T16:51:34.456Z,71.38
2022-08-27T16:54:09.889Z,72.88
2022-08-27T16:56:38.627Z,73.89
2022-08-27T16:59:06.289Z,75.52
2022-08-27T17:01:33.900Z,76.97
2022-08-27T17:04:14.795Z,77.67
2022-08-27T17:06:45.682Z,77.33
2022-08-27T17:09:12.989Z,77.07
2022-08-27T17:11:41.943Z,75.99
2022-08-27T17:14:10.748Z,77.67
2022-08-27T17:16:38.877Z,77.34
2022-08-27T17:19:06.452Z,75.80
2022-08-27T17:21:33.698Z,75.96
2022-08-27T17:24:04.622Z,75.94
2022-08-27T17:26:38.349Z,74.91
2022-08-27T17:29:05.630Z,76.35
2022-08-27T17:31:34.060Z,76.98
2022-08-27T17:34:01.561Z,77.58
2022-08-27T17:36:29.565Z,75.50
2022-08-27T17:38:57.117Z,75.58
2022-08-27T17:41:31.782Z,71.68
2022-08-27T17:44:19.951Z,76.26
2022-08-27T17:46:47.596Z,75.68
2022-08-27T17:49:16.888Z,75.12
2022-08-27T17:51:48.484Z,75.15
2022-08-27T17:54:29.833Z,72.88
2022-08-27T17:56:58.603Z,74.57
2022-08-27T17:59:25.902Z,73.94
2022-08-27T18:02:55.059Z,75.82
2022-08-27T18:06:36.984Z,76.67
2022-08-27T18:10:02.677Z,78.02
2022-08-27T18:13:30.397Z,77.62
2022-08-27T18:20:37.007Z,76.68
2022-08-27T18:23:09.518Z,76.72
2022-08-27T18:25:37.147Z,77.38
2022-08-27T18:28:10.201Z,77.34
2022-08-27T18:30:39.670Z,77.75
2022-08-27T18:33:07.565Z,78.36
2022-08-27T18:35:37.839Z,78.13
2022-08-27T18:38:06.260Z,78.20
2022-08-27T18:40:44.333Z,77.30
2022-08-27T18:43:11.910Z,78.27
2022-08-27T18:45:39.563Z,80.78
2022-08-27T18:48:21.426Z,81.36
2022-08-27T18:50:58.695Z,79.74
2022-08-27T18:53:26.905Z,78.73
2022-08-27T18:55:55.944Z,79.00
2022-08-27T18:58:24.160Z,78.73
2022-08-27T19:00:52.223Z,78.98
2022-08-27T19:03:21.961Z,77.99
2022-08-27T19:06:00.775Z,78.04
2022-08-27T19:08:30.534Z,80.60
2022-08-27T19:11:01.212Z,80.24
2022-08-27T19:13:28.529Z,80.36
2022-08-27T19:16:00.405Z,79.11
2022-08-27T19:18:28.315Z,78.65
2022-08-27T19:20:55.564Z,78.27
2022-08-27T19:23:23.213Z,77.66
2022-08-27T19:25:50.893Z,77.24
2022-08-27T19:28:18.980Z,76.74
2022-08-27T19:30:46.247Z,77.30
2022-08-27T19:33:13.551Z,76.71
2022-08-27T19:35:41.344Z,76.05
2022-08-27T19:38:10.441Z,76.12
2022-08-27T19:40:37.812Z,76.02
2022-08-27T19:43:05.308Z,76.33
2022-08-27T19:45:33.061Z,76.49
2022-08-27T19:48:00.323Z,76.57
2022-08-27T19:50:27.549Z,76.41
2022-08-27T19:52:54.877Z,76.45
2022-08-27T19:55:22.167Z,76.97
2022-08-27T19:57:49.543Z,77.46
2022-08-27T20:00:19.047Z,77.77
2022-08-27T20:02:46.325Z,78.04
2022-08-27T20:05:18.429Z,77.77
2022-08-27T20:07:50.155Z,77.44
2022-08-27T20:10:18.274Z,77.42
2022-08-27T20:12:45.478Z,77.10
2022-08-27T20:15:12.735Z,77.30
2022-08-27T20:17:43.675Z,77.59
2022-08-27T20:20:11.355Z,77.37
2022-08-27T20:22:39.870Z,78.20
2022-08-27T20:25:07.473Z,78.02
2022-08-27T20:27:34.967Z,78.89
2022-08-27T20:30:04.654Z,78.47
2022-08-27T20:32:31.962Z,78.75
2022-08-27T20:34:59.192Z,79.69
2022-08-27T20:37:26.388Z,80.68
2022-08-27T20:39:53.829Z,79.52
2022-08-27T20:42:22.235Z,78.85
2022-08-27T20:44:49.866Z,78.31
2022-08-27T20:47:17.420Z,79.07
2022-08-27T20:49:44.935Z,78.98
2022-08-27T20:52:12.977Z,80.35
2022-08-27T20:54:45.920Z,80.50
2022-08-27T20:57:13.220Z,80.52
2022-08-27T20:59:59.328Z,80.13
2022-08-27T21:02:27.574Z,79.34
2022-08-27T21:04:54.894Z,79.06
2022-08-27T21:07:23.120Z,79.80
2022-08-27T21:09:55.527Z,79.69
2022-08-27T21:12:27.880Z,79.00
2022-08-27T21:14:56.158Z,78.84
2022-08-27T21:17:27.154Z,78.79
2022-08-27T21:19:54.472Z,78.84
2022-08-27T21:22:22.218Z,79.61
2022-08-27T21:24:49.604Z,78.94
2022-08-27T21:27:17.519Z,78.64
2022-08-27T21:29:45.107Z,78.62
2022-08-27T21:32:13.061Z,79.34
2022-08-27T21:34:41.751Z,78.90
2022-08-27T21:37:10.514Z,79.32
2022-08-27T21:39:38.297Z,80.65
2022-08-27T21:42:05.631Z,80.41
2022-08-27T21:44:36.006Z,80.21
2022-08-27T21:47:03.921Z,79.36
2022-08-27T21:49:34.204Z,79.29
2022-08-27T21:52:03.544Z,78.82
2022-08-27T21:54:31.564Z,78.68
2022-08-27T21:56:58.844Z,78.46
2022-08-27T21:59:26.328Z,78.34
2022-08-27T22:02:00.562Z,78.68
2022-08-27T22:04:30.760Z,79.10
2022-08-27T22:06:59.392Z,78.74
2022-08-27T22:09:27.248Z,78.95
2022-08-27T22:11:54.910Z,79.30
2022-08-27T22:14:22.298Z,79.26
2022-08-27T22:16:50.164Z,78.49
2022-08-27T22:19:17.380Z,79.24
2022-08-27T22:21:44.849Z,79.04
2022-08-27T22:24:12.236Z,78.98
2022-08-27T22:26:39.826Z,78.24
2022-08-27T22:29:08.192Z,78.51
2022-08-27T22:31:35.778Z,78.14
2022-08-27T22:34:03.142Z,77.36
2022-08-27T22:36:31.297Z,76.89
2022-08-27T22:39:03.766Z,76.69
2022-08-27T22:41:32.440Z,76.38
2022-08-27T22:44:00.071Z,76.86
2022-08-27T22:46:29.393Z,76.88
2022-08-27T22:48:56.712Z,76.57
2022-08-27T22:51:24.060Z,76.58
2022-08-27T22:54:11.542Z,77.33
2022-08-27T22:56:39.031Z,77.65
2022-08-27T22:59:07.372Z,77.27
2022-08-27T23:01:36.290Z,77.90
2022-08-27T23:04:04.211Z,77.02
2022-08-27T23:06:31.645Z,76.70
2022-08-27T23:08:58.871Z,76.80
2022-08-27T23:11:26.225Z,76.90
2022-08-27T23:13:53.511Z,77.54
2022-08-27T23:16:20.847Z,77.65
2022-08-27T23:18:48.081Z,77.94
2022-08-27T23:21:15.347Z,77.29
2022-08-27T23:23:42.557Z,77.32
2022-08-27T23:26:28.180Z,77.73
2022-08-27T23:28:56.346Z,77.60
2022-08-27T23:31:26.035Z,77.30
2022-08-27T23:33:56.094Z,76.90
2022-08-27T23:36:23.450Z,76.90
2022-08-27T23:38:52.333Z,77.14
2022-08-27T23:41:20.235Z,76.94
2022-08-27T23:43:47.533Z,77.19
2022-08-27T23:46:14.782Z,77.23
2022-08-27T23:48:42.172Z,78.80
2022-08-27T23:51:09.554Z,79.03
2022-08-27T23:53:37.295Z,78.54
2022-08-27T23:56:05.067Z,78.14
2022-08-27T23:58:32.763Z,77.81
